Murdock, KS

2:28 PM CDT on July 25, 2014 (GMT -0500)
K0HYD, 2 Mi West of Goddard (KKSGODDA4) Elev 1470 ft | 37.66 °N, 97.61 °W | Change Station
Active Advisory: Heat Advisory

Current weather conditions updated 1 minute ago

Partly Cloudy
Partly Cloudy
101.1 °F
Feels Like 108 °F
N
5.0
Wind Variable Wind from WSW
Gusts 18.0 mph

Today is forecast to be Much Warmer than yesterday.

Today
High -- | Low -- °F
--% Chance of Precip.
Yesterday
High -- | Low -- °F
Precip. -- in
6:30 AM 8:46 PM
Waning Crescent, 1% visible
Pressure 29.77 in
Visibility 10.0 miles
Clouds Few 25000 ft
Heat Index 108 °F
Dew Point 69 °F
Humidity 36%
Rainfall 0.00 in
Snow Depth Not available.
UV 11 out of 12
Pollen 7.00 out of 12
Air Quality Not available.
Flu Activity Not available.
METAR KICT 251853Z COR 20018G26KT 10SM FEW250 37/18 A2983 RMK AO2 PK WND 20029/1821 SLP081 T03670183

More Conditions Fewer Conditions

Pressure 29.77 in
Visibility 10.0 miles
Clouds Few 25000 ft
Heat Index 108 °F
Dew Point 69 °F
Humidity 36%
Rainfall 0.00 in
Snow Depth Not available.
UV 11 out of 12
Pollen 7.00 out of 12
Air Quality Not available.
Flu Activity Not available.
METAR KICT 251853Z COR 20018G26KT 10SM FEW250 37/18 A2983 RMK AO2 PK WND 20029/1821 SLP081 T03670183

More Conditions Fewer Conditions

10-Day Weather Forecast

Almanac

Astronomy

Jul. 25, 2014 Rise Set
Actual Time 6:30 AM CDT 8:46 PM CDT
Civil Twilight 6:00 AM CDT 9:15 PM CDT
Nautical Twilight 5:24 AM CDT 9:52 PM CDT
Astronomical Twilight 4:44 AM CDT 10:31 PM CDT
Moon 5:29 AM CDT 7:45 PM CDT
Length of Visible Light 15h 15m
Length of Day
14h 16m
Tomorrow will be 1m 37s shorter.
Waning Crescent, 1% of the Moon is Illuminated
Today
Waning Crescent
Jul 26
New
Aug 3
First Quarter
Aug 10
Full
Aug 17
Last Quarter

Today's Extremes

State Highs State Lows

Community

WunderPhotos

Upload Photos

1,737,384 photos uploaded!

Nearby

Snow Depth

Station Depth Elevation
No new snow has been reported.

Earthquake Activity

City Distance Mag. Time & Date
Perry, Oklahoma 93 miles 2.9 7:28 AM CDT
2014-07-20
Harper, Kansas 19 miles 3.3 7:24 AM CDT
2014-07-20
Harper, Kansas 26 miles 3.0 7:24 PM CDT
2014-07-19
Minimum magnitude displayed is 2.5.

Coastal Water Temperatures

Place Temperature
No Stations Reporting

Nearby Weather Stations

Station Location Temp. Heat Index Dew Point Humidity Wind Precip. Elev Updated Type
K0HYD, 2 Mi West of Goddard, Goddard, KS 101.1 °F 108 °F 69 °F 36% WSW  at  5.0 mph 0.00 in / hr 1470 ft 2:26 PM CDT Rapid Fire
SETEC Observatory, Goddard, KS 99.3 °F 106 °F 69 °F 38% WSW  at  16.0 mph 0.00 in / hr 1407 ft 2:25 PM CDT Normal

Show More Stations Show Fewer Stations